streetdirectory.com.sg alexa rank chart, streetdirectory.com.sg alexa rank daily changes

streetdirectory.com.sg alexa rank chart, streetdirectory.com.sg alexa rank daily changes

streetdirectory.com.sg
Actual rank:
560 892

RANK HISTORY

Date Rank Diff
2018/05/24 560 892 +304 536
2018/05/23 256 356 -30 749
2018/05/22 287 105 +108 494
2018/05/21 178 611 -84 461
2018/05/20 263 072 +18 838
2018/05/19 244 234 -82 083
2018/05/18 326 317 +40 026
2018/05/17 286 291 -39 840
2018/05/16 326 131 -656 581
2018/05/15 982 712 +763 027
2018/05/14 219 685 -250 598
2018/05/13 470 283 +211 085
2018/05/12 259 198 -19 558
2018/05/11 278 756 -101 233
2018/05/10 379 989 -377 832
2018/05/09 757 821 -223 976
2018/05/08 981 797 +691 731
2018/05/07 290 066 -20 123
2018/05/06 310 189 -5 455
2018/05/05 315 644 +29 230
2018/05/04 286 414 +6 214
2018/05/03 280 200 -93 114
2018/05/02 373 314 +73 515
2018/05/01 299 799 +102 840
2018/04/30 196 959 -66 650
2018/04/29 263 609 -16 710
2018/04/28 280 319 +59 951
2018/04/27 220 368 +26 079
2018/04/26 194 289 -43 985
2018/04/25 238 274 +31 030
2018/04/24 207 244 -13 124
2018/04/23 220 368 -19 519
2018/04/22 239 887 +8 200
2018/04/21 231 687 -30 287
2018/04/20 261 974 -32 092
2018/04/19 294 066 -50 036
2018/04/18 344 102 +12 063
2018/04/17 332 039 +150 712
2018/04/16 181 327 -20 177
2018/04/15 201 504 -127 031
2018/04/14 328 535 +61 505
2018/04/13 267 030 -28 482
2018/04/12 295 512 +63 559
2018/04/11 231 953 -5 366
2018/04/10 237 319 -154 083
2018/04/09 391 402 +192 045
2018/04/08 199 357 -68 439
2018/04/07 267 796 -16 120
2018/04/06 283 916 -117 718
2018/04/05 401 634 +72 466
2018/04/04 329 168 +15 174
2018/04/03 313 994 +98 265
2018/04/02 215 729 -55 030
2018/04/01 270 759 +2 685
2018/03/31 268 074 +20 345
2018/03/30 247 729 -36 514
2018/03/29 284 243 -34 669
2018/03/28 318 912 +2 534
2018/03/27 316 378 +160 331
2018/03/26 156 047 +25 297
2018/03/25 130 750

WIDGET FOR YOUR SITE

DOMAINS WITH THE NEAREST RANK

Domain Rank
bhajanlyrics.com 560 887
only-amateur-porn.com 560 888
iiap.org.pe 560 889
widelands.org 560 890
fitness-for-man.com 560 891
streetdirectory.com.sg 560 892
dewimanroe.wordpress.com 560 893
andy21.com 560 894
fortnitepv.com 560 895
heytips.com 560 896
horosrd.com 560 897

DOMAINS WITH THE NEAREST RANK BY TLD .com.sg

Domain Rank
e2i.com.sg 553 582
ndcs.com.sg 558 082
hitecmobile.com.sg 560 117
streetdirectory.com.sg 560 892
cathayphoto.com.sg 568 878
franklintempleton.com.sg 568 884
gen.com.sg 568 885
marinasquare.com.sg 568 888
nec.com.sg 568 890